createdAt,value
2022-09-30T00:02:58.450Z,95328.00
2022-09-30T00:07:11.053Z,95313.94
2022-09-30T00:11:26.212Z,95320.47
2022-09-30T00:15:38.734Z,95315.63
2022-09-30T00:19:51.300Z,95317.44
2022-09-30T00:24:05.455Z,95327.50
2022-09-30T00:28:18.197Z,95332.91
2022-09-30T00:32:30.516Z,95327.13
2022-09-30T00:36:51.792Z,95329.50
2022-09-30T00:41:04.722Z,95327.41
2022-09-30T00:45:20.573Z,95328.19
2022-09-30T00:49:34.034Z,95326.72
2022-09-30T00:53:53.377Z,95324.06
2022-09-30T00:58:07.549Z,95330.22
2022-09-30T01:02:19.928Z,95325.84
2022-09-30T01:06:32.313Z,95330.56
2022-09-30T01:10:45.474Z,95348.91
2022-09-30T01:15:00.657Z,95362.44
2022-09-30T01:19:39.855Z,95361.59
2022-09-30T01:24:20.134Z,95363.78
2022-09-30T01:28:58.125Z,95359.69
2022-09-30T01:33:41.245Z,95365.41
2022-09-30T01:38:21.450Z,95368.31
2022-09-30T01:42:45.633Z,95372.03
2022-09-30T01:47:26.328Z,95383.91
2022-09-30T01:51:48.218Z,95383.63
2022-09-30T01:56:11.897Z,95384.94
2022-09-30T02:00:25.393Z,95382.50
2022-09-30T02:04:44.655Z,95380.88
2022-09-30T02:09:08.403Z,95384.97
2022-09-30T02:13:26.304Z,95391.88
2022-09-30T02:17:47.582Z,95376.06
2022-09-30T02:22:04.101Z,95375.47
2022-09-30T02:26:27.756Z,95364.84
2022-09-30T02:30:46.270Z,95373.38
2022-09-30T02:35:06.120Z,95370.16
2022-09-30T02:39:30.530Z,95369.00
2022-09-30T02:43:43.275Z,95369.78
2022-09-30T02:48:11.457Z,95374.22
2022-09-30T02:53:04.873Z,95370.78
2022-09-30T02:57:36.997Z,95372.13
2022-09-30T03:01:49.692Z,95384.47
2022-09-30T03:06:02.915Z,95386.09
2022-09-30T03:10:17.472Z,95392.13
2022-09-30T03:14:51.399Z,95389.13
2022-09-30T03:19:06.692Z,95394.97
2022-09-30T03:23:45.135Z,95397.44
2022-09-30T03:28:15.852Z,95411.00
2022-09-30T03:32:50.385Z,95406.56
2022-09-30T03:37:09.377Z,95432.69
2022-09-30T03:41:39.652Z,95439.34
2022-09-30T03:46:01.989Z,95442.22
2022-09-30T03:50:20.335Z,95438.22
2022-09-30T03:54:34.130Z,95425.88
2022-09-30T03:58:47.119Z,95432.53
2022-09-30T04:02:59.456Z,95439.25
2022-09-30T04:07:12.189Z,95446.44
2022-09-30T04:11:24.606Z,95447.66
2022-09-30T04:15:37.914Z,95454.69
2022-09-30T04:19:50.721Z,95452.69
2022-09-30T04:24:03.260Z,95457.13
2022-09-30T04:28:15.827Z,95464.03
2022-09-30T04:32:29.706Z,95465.09
2022-09-30T04:36:42.369Z,95461.41
2022-09-30T04:40:55.742Z,95459.63
2022-09-30T04:45:08.744Z,95475.13
2022-09-30T04:49:21.122Z,95470.97
2022-09-30T04:53:33.731Z,95478.63
2022-09-30T04:57:46.314Z,95485.09
2022-09-30T05:01:58.696Z,95492.28
2022-09-30T05:06:11.998Z,95495.47
2022-09-30T05:10:24.840Z,95497.84
2022-09-30T05:14:37.347Z,95490.53
2022-09-30T05:18:50.357Z,95487.06
2022-09-30T05:23:02.716Z,95499.34
2022-09-30T05:27:15.235Z,95511.25
2022-09-30T05:31:27.894Z,95518.56
2022-09-30T05:35:44.119Z,95529.22
2022-09-30T05:39:56.477Z,95511.28
2022-09-30T05:44:10.024Z,95529.28
2022-09-30T05:48:24.057Z,95542.97
2022-09-30T05:52:36.418Z,95527.19
2022-09-30T05:56:50.344Z,95538.91
2022-09-30T06:01:13.220Z,95536.47
2022-09-30T06:05:26.634Z,95550.94
2022-09-30T06:09:39.065Z,95553.03
2022-09-30T06:13:51.617Z,95541.97
2022-09-30T06:18:04.744Z,95545.25
2022-09-30T06:22:18.940Z,95566.28
2022-09-30T06:26:31.267Z,95568.81
2022-09-30T06:30:45.645Z,95558.09
2022-09-30T06:34:58.578Z,95570.22
2022-09-30T06:39:13.704Z,95574.31
2022-09-30T06:43:26.620Z,95580.69
2022-09-30T06:47:40.843Z,95587.47
2022-09-30T06:51:54.862Z,95597.56
2022-09-30T06:56:07.464Z,95597.00
2022-09-30T07:00:20.232Z,95596.47
2022-09-30T07:04:33.030Z,95606.72
2022-09-30T07:08:45.376Z,95610.69
2022-09-30T07:12:57.888Z,95603.66
2022-09-30T07:17:10.235Z,95609.75
2022-09-30T07:21:22.697Z,95611.41
2022-09-30T07:25:35.171Z,95623.78
2022-09-30T07:30:08.261Z,95614.97
2022-09-30T07:34:20.895Z,95623.34
2022-09-30T07:38:33.242Z,95621.59
2022-09-30T07:42:46.411Z,95615.91
2022-09-30T07:46:59.471Z,95606.31
2022-09-30T07:51:16.085Z,95612.81
2022-09-30T07:55:29.884Z,95619.59
2022-09-30T07:59:43.432Z,95626.19
2022-09-30T08:03:58.237Z,95625.72
2022-09-30T08:08:10.643Z,95636.28
2022-09-30T08:12:23.123Z,95636.50
2022-09-30T08:16:35.504Z,95643.94
2022-09-30T08:20:48.189Z,95647.59
2022-09-30T08:25:00.677Z,95643.53
2022-09-30T08:29:20.530Z,95645.50
2022-09-30T08:33:33.785Z,95650.50
2022-09-30T08:37:46.390Z,95661.91
2022-09-30T08:42:40.374Z,95667.59
2022-09-30T08:47:09.686Z,95666.75
2022-09-30T08:51:39.844Z,95668.25
2022-09-30T08:55:55.323Z,95686.25
2022-09-30T09:00:13.332Z,95679.38
2022-09-30T09:04:25.983Z,95683.94
2022-09-30T09:09:03.923Z,95695.06
2022-09-30T09:13:49.972Z,95687.72
2022-09-30T09:18:29.941Z,95696.84
2022-09-30T09:22:44.912Z,95699.22
2022-09-30T09:27:02.354Z,95713.03
2022-09-30T09:31:18.182Z,95718.25
2022-09-30T09:35:48.818Z,95731.47
2022-09-30T09:40:12.793Z,95721.97
2022-09-30T09:44:41.600Z,95717.63
2022-09-30T09:49:21.143Z,95726.72
2022-09-30T09:53:51.742Z,95716.56
2022-09-30T09:58:14.745Z,95712.19
2022-09-30T10:02:30.366Z,95716.53
2022-09-30T10:06:50.758Z,95718.06
2022-09-30T10:11:06.142Z,95703.16
2022-09-30T10:15:27.197Z,95717.53
2022-09-30T10:19:41.225Z,95716.72
2022-09-30T10:23:54.171Z,95734.72
2022-09-30T10:28:23.582Z,95734.00
2022-09-30T10:32:36.918Z,95740.88
2022-09-30T10:36:50.456Z,95733.75
2022-09-30T10:41:05.061Z,95722.84
2022-09-30T10:45:22.353Z,95731.47
2022-09-30T10:49:41.391Z,95732.25
2022-09-30T10:53:54.998Z,95740.28
2022-09-30T10:58:26.366Z,95744.88
2022-09-30T11:02:50.595Z,95748.34
2022-09-30T11:07:28.611Z,95747.03
2022-09-30T11:11:48.040Z,95749.31
2022-09-30T11:16:09.782Z,95732.56
2022-09-30T11:20:44.300Z,95757.94
2022-09-30T11:24:58.133Z,95761.50
2022-09-30T11:29:39.801Z,95770.69
2022-09-30T11:34:01.829Z,95770.44
2022-09-30T11:38:29.405Z,95766.78
2022-09-30T11:42:56.355Z,95767.19
2022-09-30T11:47:08.700Z,95771.78
2022-09-30T11:51:42.583Z,95761.91
2022-09-30T11:56:25.191Z,95753.38
2022-09-30T12:00:47.259Z,95755.72
2022-09-30T12:05:33.852Z,95758.13
2022-09-30T12:09:54.511Z,95769.09
2022-09-30T12:14:16.802Z,95755.63
2022-09-30T12:18:40.148Z,95751.56
2022-09-30T12:22:56.877Z,95760.59
2022-09-30T12:27:34.875Z,95766.22
2022-09-30T12:32:02.397Z,95755.25
2022-09-30T12:36:27.858Z,95759.03
2022-09-30T12:40:52.768Z,95757.72
2022-09-30T12:45:26.827Z,95752.94
2022-09-30T12:49:42.378Z,95758.50
2022-09-30T12:54:21.309Z,95749.72
2022-09-30T12:58:38.421Z,95757.44
2022-09-30T13:02:58.843Z,95762.09
2022-09-30T13:07:19.637Z,95757.06
2022-09-30T13:11:56.399Z,95754.97
2022-09-30T13:16:10.436Z,95759.28
2022-09-30T13:20:51.268Z,95765.75
2022-09-30T13:25:11.742Z,95759.75
2022-09-30T13:29:23.996Z,95768.16
2022-09-30T13:33:46.629Z,95762.09
2022-09-30T13:38:17.381Z,95757.81
2022-09-30T13:42:35.352Z,95751.72
2022-09-30T13:46:57.549Z,95765.16
2022-09-30T13:51:15.672Z,95756.53
2022-09-30T13:55:35.266Z,95749.88
2022-09-30T14:00:29.791Z,95744.06
2022-09-30T14:04:48.251Z,95746.47
2022-09-30T14:09:16.504Z,95752.41
2022-09-30T14:14:06.160Z,95749.94
2022-09-30T14:18:40.796Z,95754.66
2022-09-30T14:22:54.040Z,95756.66
2022-09-30T14:27:24.645Z,95742.13
2022-09-30T14:31:45.394Z,95749.22
2022-09-30T14:36:02.464Z,95753.13
2022-09-30T14:40:21.069Z,95765.44
2022-09-30T14:44:37.198Z,95760.88
2022-09-30T14:48:51.400Z,95772.13
2022-09-30T14:53:04.511Z,95785.06
2022-09-30T14:57:18.225Z,95779.13
2022-09-30T15:01:35.963Z,95779.84
2022-09-30T15:05:48.441Z,95786.88
2022-09-30T15:10:02.574Z,95785.41
2022-09-30T15:14:23.320Z,95774.50
2022-09-30T15:18:45.392Z,95783.63
2022-09-30T15:23:01.858Z,95790.97
2022-09-30T15:27:22.477Z,95793.47
2022-09-30T15:31:35.309Z,95793.72
2022-09-30T15:35:48.839Z,95789.41
2022-09-30T15:40:21.519Z,95778.53
2022-09-30T15:44:39.156Z,95792.97
2022-09-30T15:48:51.889Z,95798.25
2022-09-30T15:53:06.089Z,95798.47
2022-09-30T15:57:41.163Z,95800.44
2022-09-30T16:01:57.496Z,95805.34
2022-09-30T16:06:13.353Z,95815.75
2022-09-30T16:10:25.704Z,95827.28
2022-09-30T16:14:45.143Z,95834.31
2022-09-30T16:18:59.796Z,95833.63
2022-09-30T16:23:29.558Z,95836.75
2022-09-30T16:27:42.159Z,95830.22
2022-09-30T16:31:57.158Z,95832.88
2022-09-30T16:36:10.867Z,95841.47
2022-09-30T16:40:25.495Z,95852.59
2022-09-30T16:44:38.653Z,95853.25
2022-09-30T16:48:51.075Z,95851.69
2022-09-30T16:53:03.682Z,95850.91
2022-09-30T16:57:16.213Z,95855.38
2022-09-30T17:01:29.134Z,95856.22
2022-09-30T17:05:43.706Z,95859.75
2022-09-30T17:09:56.431Z,95876.94
2022-09-30T17:14:08.871Z,95881.16
2022-09-30T17:18:21.548Z,95888.22
2022-09-30T17:22:33.878Z,95880.41
2022-09-30T17:26:46.579Z,95871.03
2022-09-30T17:31:00.473Z,95875.75
2022-09-30T17:35:13.612Z,95888.84
2022-09-30T17:39:28.830Z,95892.69
2022-09-30T17:43:41.168Z,95883.56
2022-09-30T17:47:55.320Z,95880.53
2022-09-30T17:52:07.649Z,95895.47
2022-09-30T17:56:23.216Z,95891.75
2022-09-30T18:00:35.891Z,95888.16
2022-09-30T18:04:48.329Z,95887.28
2022-09-30T18:09:01.310Z,95897.31
2022-09-30T18:13:13.659Z,95904.88
2022-09-30T18:17:26.432Z,95903.84
2022-09-30T18:21:39.081Z,95903.75
2022-09-30T18:25:52.786Z,95904.41
2022-09-30T18:30:06.359Z,95913.22
2022-09-30T18:34:20.963Z,95912.25
2022-09-30T18:38:36.689Z,95921.25
2022-09-30T18:42:49.538Z,95927.66
2022-09-30T18:47:01.919Z,95926.78
2022-09-30T18:51:14.387Z,95931.38
2022-09-30T18:55:26.824Z,95922.56
2022-09-30T18:59:39.332Z,95921.56
2022-09-30T19:03:53.419Z,95926.00
2022-09-30T19:08:05.759Z,95925.28
2022-09-30T19:12:19.441Z,95928.88
2022-09-30T19:16:38.675Z,95922.56
2022-09-30T19:20:51.586Z,95919.91
2022-09-30T19:25:10.728Z,95915.69
2022-09-30T19:29:24.338Z,95907.50
2022-09-30T19:33:42.996Z,95906.38
2022-09-30T19:38:02.855Z,95906.56
2022-09-30T19:42:18.995Z,95907.25
2022-09-30T19:46:31.668Z,95903.69
2022-09-30T19:50:44.523Z,95911.06
2022-09-30T19:55:05.672Z,95907.81
2022-09-30T19:59:24.061Z,95917.91
2022-09-30T20:03:38.101Z,95913.81
2022-09-30T20:07:51.821Z,95915.63
2022-09-30T20:12:04.577Z,95907.91
2022-09-30T20:16:17.723Z,95900.34
2022-09-30T20:20:35.691Z,95907.50
2022-09-30T20:24:48.092Z,95903.00
2022-09-30T20:29:01.434Z,95902.44
2022-09-30T20:33:19.839Z,95895.09
2022-09-30T20:37:32.256Z,95894.53
2022-09-30T20:41:45.975Z,95905.22
2022-09-30T20:46:02.154Z,95908.38
2022-09-30T20:50:14.723Z,95905.25
2022-09-30T20:54:27.025Z,95905.34
2022-09-30T20:58:40.159Z,95906.97
2022-09-30T21:02:53.127Z,95921.53
2022-09-30T21:07:05.543Z,95921.25
2022-09-30T21:11:19.389Z,95928.03
2022-09-30T21:15:32.048Z,95935.28
2022-09-30T21:19:44.482Z,95938.03
2022-09-30T21:23:58.303Z,95940.81
2022-09-30T21:28:11.291Z,95939.28
2022-09-30T21:32:23.772Z,95933.09
2022-09-30T21:36:37.291Z,95920.09
2022-09-30T21:40:49.911Z,95917.81
2022-09-30T21:45:02.949Z,95912.22
2022-09-30T21:49:18.027Z,95908.47
2022-09-30T21:53:30.844Z,95915.44
2022-09-30T21:57:44.115Z,95925.06
2022-09-30T22:01:56.553Z,95921.56
2022-09-30T22:06:10.923Z,95931.88
2022-09-30T22:10:23.408Z,95931.72
2022-09-30T22:14:38.326Z,95929.97
2022-09-30T22:18:55.478Z,95922.81
2022-09-30T22:23:09.310Z,95938.25
2022-09-30T22:27:23.876Z,95937.06
2022-09-30T22:31:36.599Z,95933.94
2022-09-30T22:36:07.937Z,95946.66
2022-09-30T22:40:22.342Z,95953.88
2022-09-30T22:44:37.010Z,95958.63
2022-09-30T22:48:49.465Z,95951.00
2022-09-30T22:53:02.446Z,95956.50
2022-09-30T22:57:14.796Z,95973.34
2022-09-30T23:01:30.081Z,95973.03
2022-09-30T23:05:42.491Z,95981.94
2022-09-30T23:09:55.133Z,95982.84
2022-09-30T23:14:07.475Z,96000.47
2022-09-30T23:18:19.806Z,95996.75
2022-09-30T23:22:32.371Z,95999.34
2022-09-30T23:26:44.744Z,96003.47
2022-09-30T23:31:01.584Z,96017.06
2022-09-30T23:35:14.907Z,96013.69
2022-09-30T23:39:27.256Z,96027.16
2022-09-30T23:43:39.664Z,96035.13
2022-09-30T23:47:52.008Z,96022.53
2022-09-30T23:52:09.194Z,96020.09
2022-09-30T23:56:24.937Z,96019.63
